Time;durP1;ratioP1;P1;durP2;ratioP2;P2;SDS_P1;SDS_P2;PMS_P1;PMS_P2;Temp;Humidity;BMP_temperature;BMP_pressure;BME280_temperature;BME280_humidity;BME280_pressure;Samples;Min_cycle;Max_cycle;Signal;HPM_P1;HPM_P2
2021/10/25 00:02:02;;;;;;;;;36.75;32.25;;;;;;;;5081180;27;45374;-73
2021/10/25 00:04:30;;;;;;;;;38.50;29.25;;;;;;;;5079628;27;45504;-73
2021/10/25 00:06:56;;;;;;;;;36.50;34.25;;;;;;;;5077351;27;45330;-73
2021/10/25 00:09:21;;;;;;;;;33.25;31.25;;;;;;;;5083042;27;45452;-73
2021/10/25 00:11:47;;;;;;;;;31.00;29.75;;;;;;;;5081046;27;45435;-74
2021/10/25 00:14:12;;;;;;;;;31.50;31.50;;;;;;;;5080316;27;45211;-74
2021/10/25 00:16:38;;;;;;;;;36.75;31.75;;;;;;;;5080579;27;45283;-74
2021/10/25 00:19:04;;;;;;;;;38.50;33.00;;;;;;;;5076632;27;45613;-74
2021/10/25 00:21:29;;;;;;;;;28.00;27.50;;;;;;;;5082516;27;45367;-74
2021/10/25 00:23:55;;;;;;;;;40.50;32.50;;;;;;;;5080362;27;47142;-74
2021/10/25 00:26:20;;;;;;;;;36.00;29.75;;;;;;;;5080725;27;45660;-74
2021/10/25 00:28:45;;;;;;;;;34.75;31.75;;;;;;;;5080475;27;45373;-74
2021/10/25 00:31:10;;;;;;;;;33.00;31.00;;;;;;;;5075501;27;45384;-73
2021/10/25 00:33:35;;;;;;;;;33.50;31.50;;;;;;;;5081150;27;45414;-73
2021/10/25 00:36:01;;;;;;;;;29.00;26.75;;;;;;;;5079156;27;45466;-73
2021/10/25 00:38:26;;;;;;;;;33.00;30.25;;;;;;;;5079237;27;45416;-74
2021/10/25 00:40:52;;;;;;;;;30.75;29.25;;;;;;;;5080313;27;45422;-74
2021/10/25 00:43:17;;;;;;;;;30.00;27.75;;;;;;;;5077111;27;47358;-74
2021/10/25 00:45:43;;;;;;;;;32.75;31.50;;;;;;;;5079190;27;45378;-74
2021/10/25 00:48:08;;;;;;;;;26.50;24.25;;;;;;;;5081383;27;45527;-73
2021/10/25 00:50:33;;;;;;;;;31.00;28.50;;;;;;;;5079985;27;45466;-74
2021/10/25 00:52:59;;;;;;;;;31.00;26.25;;;;;;;;5078652;27;47162;-73
2021/10/25 00:55:24;;;;;;;;;33.75;27.50;;;;;;;;5078005;27;45497;-73
2021/10/25 00:57:49;;;;;;;;;22.75;20.50;;;;;;;;5077032;27;45296;-74
2021/10/25 01:00:15;;;;;;;;;32.50;28.50;;;;;;;;5081824;27;45484;-74
2021/10/25 01:02:40;;;;;;;;;28.25;26.25;;;;;;;;5079587;27;46250;-73
2021/10/25 01:05:06;;;;;;;;;29.00;28.75;;;;;;;;5079831;27;45511;-73
2021/10/25 01:07:31;;;;;;;;;32.25;31.00;;;;;;;;5079319;27;45585;-73
2021/10/25 01:09:57;;;;;;;;;29.00;25.75;;;;;;;;5075796;27;45526;-73
2021/10/25 01:12:23;;;;;;;;;30.75;27.50;;;;;;;;5080404;27;46051;-74
2021/10/25 01:14:48;;;;;;;;;28.75;28.00;;;;;;;;5078125;27;45537;-73
2021/10/25 01:17:14;;;;;;;;;33.00;30.25;;;;;;;;5079625;27;45431;-73
2021/10/25 01:19:39;;;;;;;;;23.50;22.25;;;;;;;;5079530;27;45395;-74
2021/10/25 01:22:05;;;;;;;;;29.25;27.75;;;;;;;;5075008;28;47035;-73
2021/10/25 01:24:30;;;;;;;;;29.00;27.00;;;;;;;;5088614;27;45535;-73
2021/10/25 01:26:55;;;;;;;;;30.25;26.00;;;;;;;;5079473;27;45512;-73
2021/10/25 01:29:21;;;;;;;;;27.00;25.75;;;;;;;;5079298;27;45301;-73
2021/10/25 01:31:47;;;;;;;;;29.00;28.50;;;;;;;;5079305;27;46396;-73
2021/10/25 01:34:13;;;;;;;;;28.25;25.25;;;;;;;;5074510;27;45467;-73
2021/10/25 01:36:38;;;;;;;;;31.50;26.50;;;;;;;;5079656;27;45348;-73
2021/10/25 01:39:04;;;;;;;;;32.50;29.50;;;;;;;;5080255;27;45479;-73
2021/10/25 01:41:29;;;;;;;;;21.00;19.75;;;;;;;;5077225;27;46034;-73
2021/10/25 01:43:54;;;;;;;;;24.50;24.50;;;;;;;;5078665;27;45427;-73
2021/10/25 01:46:19;;;;;;;;;25.50;22.75;;;;;;;;5077127;27;45441;-73
2021/10/25 01:48:44;;;;;;;;;24.50;21.00;;;;;;;;5078284;27;45280;-73
2021/10/25 01:51:10;;;;;;;;;22.00;19.75;;;;;;;;5078677;27;45703;-73
2021/10/25 01:53:37;;;;;;;;;30.00;26.00;;;;;;;;5077364;27;45389;-73
2021/10/25 01:56:02;;;;;;;;;22.75;22.25;;;;;;;;5079884;27;45338;-73
2021/10/25 01:58:27;;;;;;;;;24.00;22.50;;;;;;;;5077761;27;45216;-73
2021/10/25 02:00:53;;;;;;;;;25.75;23.00;;;;;;;;5076312;27;45413;-73
2021/10/25 02:03:19;;;;;;;;;24.50;23.25;;;;;;;;5080702;27;45367;-73
2021/10/25 02:05:44;;;;;;;;;25.25;23.50;;;;;;;;5079020;27;45471;-73
2021/10/25 02:08:10;;;;;;;;;29.50;26.00;;;;;;;;5078096;27;45378;-73
2021/10/25 02:10:35;;;;;;;;;23.75;20.75;;;;;;;;5077851;27;46097;-73
2021/10/25 02:13:01;;;;;;;;;24.75;24.75;;;;;;;;5074348;27;45529;-75
2021/10/25 02:15:26;;;;;;;;;28.25;25.25;;;;;;;;5080874;27;45379;-73
2021/10/25 02:17:52;;;;;;;;;23.50;22.00;;;;;;;;5078855;27;45423;-73
2021/10/25 02:20:17;;;;;;;;;24.00;23.50;;;;;;;;5078313;27;46252;-73
2021/10/25 02:22:42;;;;;;;;;21.25;20.00;;;;;;;;5077216;27;45378;-73
2021/10/25 02:25:08;;;;;;;;;28.25;24.75;;;;;;;;5074691;27;45359;-73
2021/10/25 02:27:33;;;;;;;;;26.25;24.00;;;;;;;;5080320;27;45328;-73
2021/10/25 02:29:58;;;;;;;;;28.00;23.50;;;;;;;;5076689;27;45431;-73
2021/10/25 02:32:24;;;;;;;;;24.75;22.25;;;;;;;;5076918;27;45654;-73
2021/10/25 02:34:49;;;;;;;;;22.25;22.25;;;;;;;;5078227;27;45559;-73
2021/10/25 02:37:15;;;;;;;;;27.25;24.00;;;;;;;;5075459;27;45462;-73
2021/10/25 02:39:41;;;;;;;;;22.25;20.00;;;;;;;;5077640;27;46489;-73
2021/10/25 02:42:06;;;;;;;;;25.50;24.00;;;;;;;;5079078;27;45469;-72
2021/10/25 02:44:31;;;;;;;;;25.75;20.00;;;;;;;;5078208;27;45621;-73
2021/10/25 02:46:57;;;;;;;;;23.50;21.75;;;;;;;;5077931;27;45388;-72
2021/10/25 02:49:22;;;;;;;;;23.00;21.00;;;;;;;;5055579;28;47885;-73
2021/10/25 02:51:47;;;;;;;;;24.75;22.00;;;;;;;;5090466;27;45235;-73
2021/10/25 02:54:12;;;;;;;;;23.00;21.00;;;;;;;;5079946;27;45521;-73
2021/10/25 02:56:37;;;;;;;;;21.00;17.75;;;;;;;;5082348;27;45362;-73
2021/10/25 02:59:09;;;;;;;;;21.00;20.25;;;;;;;;5084996;27;46390;-73
2021/10/25 03:01:34;;;;;;;;;20.25;20.25;;;;;;;;5077622;27;45773;-73
2021/10/25 03:03:59;;;;;;;;;27.75;25.00;;;;;;;;5074230;27;45227;-73
2021/10/25 03:06:24;;;;;;;;;25.25;23.25;;;;;;;;5080414;27;45422;-73
2021/10/25 03:08:50;;;;;;;;;23.25;21.50;;;;;;;;5076016;27;46189;-73
2021/10/25 03:11:15;;;;;;;;;23.50;20.25;;;;;;;;5076074;27;45221;-72
2021/10/25 03:13:40;;;;;;;;;20.75;20.75;;;;;;;;5077702;27;45417;-72
2021/10/25 03:16:05;;;;;;;;;24.25;23.25;;;;;;;;5072443;27;45499;-73
2021/10/25 03:18:31;;;;;;;;;22.75;21.50;;;;;;;;5079303;27;46450;-72
2021/10/25 03:20:56;;;;;;;;;25.50;22.00;;;;;;;;5077599;27;45456;-72
2021/10/25 03:23:23;;;;;;;;;22.00;19.00;;;;;;;;5077213;27;45452;-72
2021/10/25 03:25:48;;;;;;;;;18.00;16.00;;;;;;;;5077433;27;45544;-72
2021/10/25 03:28:14;;;;;;;;;20.00;19.00;;;;;;;;5074272;27;46107;-72
2021/10/25 03:30:39;;;;;;;;;18.75;16.00;;;;;;;;5077292;27;45289;-73
2021/10/25 03:33:05;;;;;;;;;19.25;17.00;;;;;;;;5078736;27;45516;-72
2021/10/25 03:35:30;;;;;;;;;21.75;19.50;;;;;;;;5077410;27;45535;-73
2021/10/25 03:37:57;;;;;;;;;17.75;16.50;;;;;;;;5076929;27;46233;-73
2021/10/25 03:40:22;;;;;;;;;19.50;19.50;;;;;;;;5075772;27;45372;-72
2021/10/25 03:42:50;;;;;;;;;19.75;17.50;;;;;;;;5074679;27;49694;-72
2021/10/25 03:45:36;;;;;;;;;19.25;15.75;;;;;;;;5077565;27;45386;-74
2021/10/25 03:50:47;;;;;;;;;25.00;20.75;;;;;;;;5077363;27;45329;-74
2021/10/25 03:53:25;;;;;;;;;18.25;17.50;;;;;;;;5077530;27;45456;-73
2021/10/25 03:55:56;;;;;;;;;21.75;17.25;;;;;;;;5077837;27;45477;-73
2021/10/25 04:25:47;;;;;;;;;15.75;15.75;;;;;;;;5073016;27;45341;-73
2021/10/25 04:28:19;;;;;;;;;16.75;15.00;;;;;;;;5059192;27;45630;-74
2021/10/25 04:30:51;;;;;;;;;15.00;14.25;;;;;;;;5077758;27;45514;-72
2021/10/25 04:33:17;;;;;;;;;12.75;12.75;;;;;;;;5079725;27;45499;-73
2021/10/25 04:35:45;;;;;;;;;19.00;16.00;;;;;;;;5079399;27;45428;-73
2021/10/25 04:38:10;;;;;;;;;17.50;13.00;;;;;;;;5079969;27;45341;-72
2021/10/25 04:40:35;;;;;;;;;25.00;20.00;;;;;;;;5079353;27;46080;-74
2021/10/25 04:43:00;;;;;;;;;13.25;13.25;;;;;;;;5075407;27;45408;-74
2021/10/25 04:45:26;;;;;;;;;17.75;16.00;;;;;;;;5093711;27;45554;-74
2021/10/25 04:47:54;;;;;;;;;16.00;15.75;;;;;;;;5079087;27;45345;-74
2021/10/25 04:50:21;;;;;;;;;18.00;17.00;;;;;;;;5078926;27;46325;-74
2021/10/25 04:52:46;;;;;;;;;18.50;15.50;;;;;;;;5079695;27;45288;-74
2021/10/25 04:55:11;;;;;;;;;15.00;14.00;;;;;;;;5074986;27;45707;-74
2021/10/25 04:57:37;;;;;;;;;20.00;16.00;;;;;;;;5079270;27;45379;-74
2021/10/25 05:00:03;;;;;;;;;15.00;14.00;;;;;;;;5079961;27;45434;-74
2021/10/25 05:02:28;;;;;;;;;16.75;14.25;;;;;;;;5079435;27;45444;-76
2021/10/25 05:04:54;;;;;;;;;15.75;15.75;;;;;;;;5077352;27;45431;-76
2021/10/25 05:07:20;;;;;;;;;14.75;13.50;;;;;;;;5075022;27;45465;-76
2021/10/25 05:09:45;;;;;;;;;15.00;15.00;;;;;;;;5058759;28;46872;-75
2021/10/25 05:12:13;;;;;;;;;16.50;14.50;;;;;;;;5080440;27;45538;-77
2021/10/25 05:14:39;;;;;;;;;18.25;14.50;;;;;;;;5078876;27;45268;-76
2021/10/25 05:17:05;;;;;;;;;15.25;13.50;;;;;;;;5078875;27;45253;-76
2021/10/25 05:19:31;;;;;;;;;11.75;11.75;;;;;;;;5077667;27;45343;-75
2021/10/25 05:21:57;;;;;;;;;11.75;11.75;;;;;;;;5075184;27;45285;-76
2021/10/25 05:24:22;;;;;;;;;12.25;11.25;;;;;;;;5081178;27;45320;-75
2021/10/25 05:26:47;;;;;;;;;14.25;12.75;;;;;;;;5076983;27;45399;-76
2021/10/25 05:29:12;;;;;;;;;14.50;14.00;;;;;;;;5079270;27;46126;-76
2021/10/25 05:31:38;;;;;;;;;15.50;14.00;;;;;;;;5079015;27;45283;-76
2021/10/25 05:34:03;;;;;;;;;16.25;15.00;;;;;;;;5090478;27;45310;-75
2021/10/25 05:36:28;;;;;;;;;18.75;16.50;;;;;;;;5080786;27;45511;-76
2021/10/25 05:38:53;;;;;;;;;17.50;13.75;;;;;;;;5078086;27;45620;-76
2021/10/25 05:41:19;;;;;;;;;15.00;15.00;;;;;;;;5078355;27;45512;-76
2021/10/25 05:43:44;;;;;;;;;18.75;17.00;;;;;;;;5077292;27;45450;-73
2021/10/25 05:46:09;;;;;;;;;23.50;14.25;;;;;;;;5073059;27;45441;-77
2021/10/25 05:48:34;;;;;;;;;15.00;15.00;;;;;;;;5078529;27;45964;-78
2021/10/25 05:51:01;;;;;;;;;21.50;17.25;;;;;;;;5078387;27;45402;-74
2021/10/25 05:53:26;;;;;;;;;19.50;17.25;;;;;;;;5078670;27;45394;-74
2021/10/25 05:55:52;;;;;;;;;19.25;15.75;;;;;;;;5078081;27;45405;-75
2021/10/25 05:58:23;;;;;;;;;19.50;19.00;;;;;;;;5075534;27;45240;-74
2021/10/25 06:00:51;;;;;;;;;25.75;21.00;;;;;;;;5075626;27;45501;-74
2021/10/25 06:03:18;;;;;;;;;22.00;20.25;;;;;;;;5080174;27;45347;-74
2021/10/25 06:05:43;;;;;;;;;21.00;19.75;;;;;;;;5077269;27;45482;-74
2021/10/25 06:08:10;;;;;;;;;28.75;19.50;;;;;;;;5077472;27;46124;-72
2021/10/25 06:10:36;;;;;;;;;20.00;19.75;;;;;;;;5077389;27;45453;-73
2021/10/25 06:13:04;;;;;;;;;17.50;17.50;;;;;;;;5073401;27;45278;-71
2021/10/25 06:15:41;;;;;;;;;19.50;18.50;;;;;;;;5091217;27;45315;-75
2021/10/25 06:18:09;;;;;;;;;19.00;19.00;;;;;;;;5078211;27;46656;-75
2021/10/25 06:20:39;;;;;;;;;25.25;22.00;;;;;;;;5077316;27;45539;-78
2021/10/25 06:23:12;;;;;;;;;26.00;21.25;;;;;;;;5077446;27;45496;-76
2021/10/25 06:25:38;;;;;;;;;22.75;22.50;;;;;;;;5077399;27;45663;-76
2021/10/25 06:28:03;;;;;;;;;22.25;20.50;;;;;;;;5073150;27;45326;-77
2021/10/25 06:30:29;;;;;;;;;21.50;18.25;;;;;;;;5080136;27;45312;-77
2021/10/25 06:32:55;;;;;;;;;18.00;15.25;;;;;;;;5078489;27;45581;-75
2021/10/25 06:35:24;;;;;;;;;25.75;20.25;;;;;;;;5077957;27;45417;-77
2021/10/25 06:40:15;;;;;;;;;24.50;23.25;;;;;;;;5089698;27;45271;-77
2021/10/25 06:42:41;;;;;;;;;31.75;23.50;;;;;;;;5077669;27;45313;-77
2021/10/25 06:45:09;;;;;;;;;22.25;19.00;;;;;;;;5076483;27;45340;-77
2021/10/25 06:47:35;;;;;;;;;21.50;21.50;;;;;;;;5077502;27;46194;-77
2021/10/25 06:50:00;;;;;;;;;21.50;20.50;;;;;;;;5076731;27;45257;-76
2021/10/25 06:52:25;;;;;;;;;17.75;16.75;;;;;;;;5057639;27;45448;-78
2021/10/25 06:54:51;;;;;;;;;19.75;19.75;;;;;;;;5073762;27;45420;-75
2021/10/25 06:57:16;;;;;;;;;17.00;15.75;;;;;;;;5079087;27;45695;-77
2021/10/25 06:59:42;;;;;;;;;19.75;16.25;;;;;;;;5076528;27;45462;-76
2021/10/25 07:02:07;;;;;;;;;18.00;15.75;;;;;;;;5057264;28;45408;-78
2021/10/25 07:04:32;;;;;;;;;26.00;22.75;;;;;;;;5056365;27;45525;-78
2021/10/25 07:06:58;;;;;;;;;18.50;17.50;;;;;;;;5072331;27;45467;-78
2021/10/25 07:09:23;;;;;;;;;20.25;19.75;;;;;;;;5077375;27;45402;-77
2021/10/25 07:11:48;;;;;;;;;19.50;18.50;;;;;;;;5076315;27;49687;-77
2021/10/25 07:14:16;;;;;;;;;23.50;21.00;;;;;;;;5075731;27;45346;-77
2021/10/25 08:09:58;;;;;;;;;23.00;18.00;;;;;;;;5075997;27;45343;-73
2021/10/25 08:12:29;;;;;;;;;25.25;24.25;;;;;;;;5080757;27;45458;-81
2021/10/25 08:15:01;;;;;;;;;21.00;21.00;;;;;;;;5078995;27;45371;-76
2021/10/25 08:17:37;;;;;;;;;19.50;18.75;;;;;;;;5079128;27;45386;-77
2021/10/25 08:20:05;;;;;;;;;26.50;24.00;;;;;;;;5077160;27;46173;-73
2021/10/25 08:22:32;;;;;;;;;20.25;19.00;;;;;;;;5076568;27;45761;-72
2021/10/25 08:24:57;;;;;;;;;23.50;20.00;;;;;;;;5074599;27;45490;-74
2021/10/25 08:27:23;;;;;;;;;19.25;17.00;;;;;;;;5079821;27;45289;-73
2021/10/25 08:29:49;;;;;;;;;23.75;22.75;;;;;;;;5078892;27;45504;-73
2021/10/25 08:40:05;;;;;;;;;22.00;19.00;;;;;;;;5075682;27;45549;-72
2021/10/25 08:42:33;;;;;;;;;21.75;18.75;;;;;;;;5080110;27;45495;-71
2021/10/25 08:45:06;;;;;;;;;23.75;19.25;;;;;;;;5078807;27;45404;-73
2021/10/25 08:47:36;;;;;;;;;20.25;19.25;;;;;;;;5079025;27;45494;-73
2021/10/25 08:50:03;;;;;;;;;22.00;21.00;;;;;;;;5078080;27;46089;-76
2021/10/25 08:52:28;;;;;;;;;26.00;20.25;;;;;;;;5077593;27;45352;-76
2021/10/25 08:54:53;;;;;;;;;20.50;19.75;;;;;;;;5075250;27;45723;-77
2021/10/25 08:57:19;;;;;;;;;20.50;18.50;;;;;;;;5080854;27;45419;-78
2021/10/25 08:59:58;;;;;;;;;25.50;24.75;;;;;;;;5077189;27;45476;-77
2021/10/25 09:02:24;;;;;;;;;19.00;18.75;;;;;;;;5076477;27;45537;-78
2021/10/25 09:05:04;;;;;;;;;18.50;16.25;;;;;;;;5077564;27;45467;-78
2021/10/25 09:07:30;;;;;;;;;23.50;20.25;;;;;;;;5077070;27;47279;-77
2021/10/25 09:09:56;;;;;;;;;19.25;19.25;;;;;;;;5074705;27;45386;-77
2021/10/25 09:12:21;;;;;;;;;22.75;21.25;;;;;;;;5079123;27;45670;-77
2021/10/25 09:14:46;;;;;;;;;28.50;25.25;;;;;;;;5076286;27;45516;-76
2021/10/25 09:17:12;;;;;;;;;25.50;21.25;;;;;;;;5061711;28;45569;-77
2021/10/25 09:19:38;;;;;;;;;25.00;21.50;;;;;;;;5078613;27;45351;-76
2021/10/25 09:22:05;;;;;;;;;26.00;24.25;;;;;;;;5063392;28;45389;-77
2021/10/25 09:24:30;;;;;;;;;26.50;25.25;;;;;;;;5084627;27;45395;-78
2021/10/25 09:27:01;;;;;;;;;24.25;20.25;;;;;;;;5080323;27;45986;-75
2021/10/25 09:29:27;;;;;;;;;25.25;23.50;;;;;;;;5079196;27;46358;-76
2021/10/25 09:31:57;;;;;;;;;22.25;22.00;;;;;;;;5079559;27;45347;-79
2021/10/25 09:34:33;;;;;;;;;18.50;17.50;;;;;;;;5076914;27;45421;-77
2021/10/25 09:37:07;;;;;;;;;23.50;21.50;;;;;;;;5074055;27;45604;-78
2021/10/25 09:39:47;;;;;;;;;19.75;16.50;;;;;;;;5087033;27;46660;-78
2021/10/25 09:45:21;;;;;;;;;20.50;19.00;;;;;;;;5077958;27;45470;-78
2021/10/25 09:50:30;;;;;;;;;19.50;18.00;;;;;;;;5076708;27;45392;-77
2021/10/25 09:52:57;;;;;;;;;23.25;20.00;;;;;;;;5077491;27;46711;-76
2021/10/25 09:55:23;;;;;;;;;25.75;22.75;;;;;;;;5075273;27;45999;-76
2021/10/25 10:00:15;;;;;;;;;23.25;21.25;;;;;;;;5079420;27;45407;-77
2021/10/25 10:02:41;;;;;;;;;22.75;22.75;;;;;;;;5058863;27;45541;-78
2021/10/25 10:05:08;;;;;;;;;24.75;22.50;;;;;;;;5075857;27;45534;-78
2021/10/25 10:07:34;;;;;;;;;23.50;22.50;;;;;;;;5077436;27;45318;-77
2021/10/25 10:09:59;;;;;;;;;20.75;17.00;;;;;;;;5075348;27;45913;-77
2021/10/25 10:12:26;;;;;;;;;22.25;18.75;;;;;;;;5080097;27;45378;-77
2021/10/25 10:14:52;;;;;;;;;24.75;22.00;;;;;;;;5077796;27;45737;-78
2021/10/25 10:17:22;;;;;;;;;27.50;24.75;;;;;;;;5075813;27;45454;-78
2021/10/25 10:19:49;;;;;;;;;28.75;24.00;;;;;;;;5075191;27;46217;-78
2021/10/25 10:22:15;;;;;;;;;25.50;23.50;;;;;;;;5072765;27;45368;-77
2021/10/25 10:24:41;;;;;;;;;27.00;21.25;;;;;;;;5076682;27;45496;-76
2021/10/25 10:27:07;;;;;;;;;29.75;27.25;;;;;;;;5078089;27;46968;-77
2021/10/25 10:29:39;;;;;;;;;37.25;32.25;;;;;;;;5077310;27;46042;-76
2021/10/25 10:32:06;;;;;;;;;32.75;28.50;;;;;;;;5076973;27;45418;-77
2021/10/25 10:34:42;;;;;;;;;30.25;24.00;;;;;;;;5076153;27;45530;-76
2021/10/25 10:37:24;;;;;;;;;27.75;25.25;;;;;;;;5056938;27;45599;-77
2021/10/25 10:40:06;;;;;;;;;24.50;23.25;;;;;;;;5074799;27;45507;-78
2021/10/25 10:42:31;;;;;;;;;19.50;19.50;;;;;;;;5090031;27;45382;-77
2021/10/25 10:44:59;;;;;;;;;27.75;25.75;;;;;;;;5058774;27;45394;-77
2021/10/25 10:47:24;;;;;;;;;27.50;23.00;;;;;;;;5077056;27;45240;-77
2021/10/25 10:49:54;;;;;;;;;29.00;22.25;;;;;;;;5076355;27;46062;-77
2021/10/25 10:52:32;;;;;;;;;20.00;16.25;;;;;;;;5073474;27;45404;-77
2021/10/25 10:55:03;;;;;;;;;28.00;22.00;;;;;;;;5072187;27;45532;-76
2021/10/25 10:58:28;;;;;;;;;22.00;17.25;;;;;;;;5078909;27;45569;-77
2021/10/25 11:00:26;;;;;;;;;23.00;19.00;;;;;;;;5070106;27;45863;-77
2021/10/25 11:02:54;;;;;;;;;18.75;17.50;;;;;;;;5076649;27;45412;-77
2021/10/25 11:05:31;;;;;;;;;15.75;14.25;;;;;;;;5058227;28;45314;-77
2021/10/25 11:08:00;;;;;;;;;11.75;11.75;;;;;;;;5076177;27;45755;-76
2021/10/25 11:10:27;;;;;;;;;14.50;12.25;;;;;;;;5073886;27;46117;-78
2021/10/25 11:12:59;;;;;;;;;15.25;13.75;;;;;;;;5073327;27;45427;-78
2021/10/25 11:15:34;;;;;;;;;14.50;13.75;;;;;;;;5078809;27;45426;-78
2021/10/25 11:18:01;;;;;;;;;16.00;12.50;;;;;;;;5075944;27;45308;-77
2021/10/25 11:20:26;;;;;;;;;13.00;11.25;;;;;;;;5075458;27;47466;-77
2021/10/25 11:22:51;;;;;;;;;13.75;13.50;;;;;;;;5075947;27;45534;-77
2021/10/25 11:25:18;;;;;;;;;14.25;11.50;;;;;;;;5071547;27;45428;-76
2021/10/25 11:27:43;;;;;;;;;14.75;13.50;;;;;;;;5077280;27;45392;-78
2021/10/25 11:30:14;;;;;;;;;11.75;10.50;;;;;;;;5088550;27;46173;-78
2021/10/25 11:32:40;;;;;;;;;13.25;12.25;;;;;;;;5081739;27;45530;-77
2021/10/25 11:35:07;;;;;;;;;17.50;14.75;;;;;;;;5077156;27;45533;-76
2021/10/25 11:37:33;;;;;;;;;11.25;11.25;;;;;;;;5078726;27;45378;-77
2021/10/25 11:40:08;;;;;;;;;15.00;13.50;;;;;;;;5077855;27;47045;-77
2021/10/25 11:42:51;;;;;;;;;14.00;12.00;;;;;;;;5090788;27;45285;-77
2021/10/25 11:45:20;;;;;;;;;13.00;12.50;;;;;;;;5080028;27;45470;-78
2021/10/25 11:47:47;;;;;;;;;15.75;13.25;;;;;;;;5079929;27;45383;-77
2021/10/25 11:50:23;;;;;;;;;17.25;12.25;;;;;;;;5079089;27;47453;-78
2021/10/25 11:52:49;;;;;;;;;19.75;17.75;;;;;;;;5079093;27;45592;-76
2021/10/25 11:55:19;;;;;;;;;15.50;15.50;;;;;;;;5076655;27;45398;-76
2021/10/25 11:57:48;;;;;;;;;17.25;12.25;;;;;;;;5079433;27;45342;-77
2021/10/25 12:00:14;;;;;;;;;14.50;14.50;;;;;;;;5081256;27;47219;-77
2021/10/25 12:02:40;;;;;;;;;14.50;13.75;;;;;;;;5079186;27;45467;-76
2021/10/25 12:05:05;;;;;;;;;18.25;16.00;;;;;;;;5060523;27;45360;-78
2021/10/25 12:07:31;;;;;;;;;16.00;13.00;;;;;;;;5078237;27;45302;-78
2021/10/25 12:10:00;;;;;;;;;15.00;13.50;;;;;;;;5092858;27;47035;-77
2021/10/25 12:12:25;;;;;;;;;16.00;16.00;;;;;;;;5083276;27;45469;-77
2021/10/25 12:14:56;;;;;;;;;13.00;13.00;;;;;;;;5077947;27;45383;-77
2021/10/25 12:17:25;;;;;;;;;18.25;16.50;;;;;;;;5078398;27;45411;-77
2021/10/25 12:19:51;;;;;;;;;18.50;14.00;;;;;;;;5077663;27;47154;-77
2021/10/25 12:22:19;;;;;;;;;16.50;15.75;;;;;;;;5076336;27;45307;-77
2021/10/25 12:24:46;;;;;;;;;20.25;16.00;;;;;;;;5060078;27;45403;-77
2021/10/25 12:27:16;;;;;;;;;10.75;10.75;;;;;;;;5081609;27;45417;-77
2021/10/25 12:29:42;;;;;;;;;13.50;12.75;;;;;;;;5079959;27;46362;-78
2021/10/25 12:32:10;;;;;;;;;18.50;17.25;;;;;;;;5079788;27;45421;-79
2021/10/25 12:34:48;;;;;;;;;16.75;14.50;;;;;;;;5091457;27;45298;-76
2021/10/25 12:37:20;;;;;;;;;11.75;10.50;;;;;;;;5092202;27;45425;-78
2021/10/25 12:39:46;;;;;;;;;17.50;14.50;;;;;;;;5079250;27;46175;-77
2021/10/25 12:42:11;;;;;;;;;13.75;12.25;;;;;;;;5063242;27;45628;-78
2021/10/25 12:44:41;;;;;;;;;17.50;14.25;;;;;;;;5079838;27;45473;-77
2021/10/25 12:47:09;;;;;;;;;14.25;12.75;;;;;;;;5079367;27;45246;-79
2021/10/25 12:49:34;;;;;;;;;14.75;12.00;;;;;;;;5076861;27;47196;-78
2021/10/25 12:52:04;;;;;;;;;18.00;18.00;;;;;;;;5074341;27;45346;-78
2021/10/25 12:54:32;;;;;;;;;17.50;17.50;;;;;;;;5080748;27;45342;-77
2021/10/25 12:56:58;;;;;;;;;11.00;11.00;;;;;;;;5077141;27;45442;-77
2021/10/25 12:59:27;;;;;;;;;13.25;10.75;;;;;;;;5085923;27;46052;-76
2021/10/25 13:01:53;;;;;;;;;13.75;11.50;;;;;;;;5088964;27;45522;-78
2021/10/25 13:04:19;;;;;;;;;11.00;10.50;;;;;;;;5057538;27;45463;-78
2021/10/25 13:06:44;;;;;;;;;19.75;15.00;;;;;;;;5078309;27;45301;-77
2021/10/25 13:09:11;;;;;;;;;16.25;13.75;;;;;;;;5078398;27;45477;-76
2021/10/25 13:11:36;;;;;;;;;15.00;12.75;;;;;;;;5078350;27;45438;-77
2021/10/25 13:14:02;;;;;;;;;19.25;14.25;;;;;;;;5078433;27;45484;-78
2021/10/25 13:16:43;;;;;;;;;12.25;11.00;;;;;;;;5082020;27;45271;-77
2021/10/25 13:19:09;;;;;;;;;5.75;5.75;;;;;;;;5065067;27;46162;-76
2021/10/25 13:21:35;;;;;;;;;7.75;7.00;;;;;;;;5088553;27;45345;-77
2021/10/25 13:24:00;;;;;;;;;15.75;13.00;;;;;;;;5085078;27;45295;-77
2021/10/25 13:26:26;;;;;;;;;11.75;11.00;;;;;;;;5087834;27;45382;-78
2021/10/25 13:28:52;;;;;;;;;15.00;14.75;;;;;;;;5080776;27;45613;-76
2021/10/25 13:31:17;;;;;;;;;9.00;9.00;;;;;;;;5077066;27;45460;-77
2021/10/25 13:33:43;;;;;;;;;13.25;9.25;;;;;;;;5078142;27;45335;-78
2021/10/25 13:36:08;;;;;;;;;7.00;5.25;;;;;;;;5078981;27;45501;-78
2021/10/25 13:38:34;;;;;;;;;10.00;10.00;;;;;;;;5076476;27;45381;-77
2021/10/25 13:41:01;;;;;;;;;13.75;12.75;;;;;;;;5077960;27;45535;-78
2021/10/25 13:43:26;;;;;;;;;8.00;8.00;;;;;;;;5076000;27;45553;-76
2021/10/25 13:45:51;;;;;;;;;8.75;8.00;;;;;;;;5074942;27;45342;-78
2021/10/25 13:48:17;;;;;;;;;16.75;13.25;;;;;;;;5080429;27;46149;-76
2021/10/25 13:50:42;;;;;;;;;13.00;10.75;;;;;;;;5079063;27;45382;-77
2021/10/25 13:53:09;;;;;;;;;5.50;5.50;;;;;;;;5079449;27;45420;-77
2021/10/25 13:55:35;;;;;;;;;11.50;11.50;;;;;;;;5078756;27;45406;-75
2021/10/25 13:58:00;;;;;;;;;10.25;9.25;;;;;;;;5075283;27;46458;-76
2021/10/25 14:00:25;;;;;;;;;11.25;10.00;;;;;;;;5080060;27;45356;-75
2021/10/25 14:02:54;;;;;;;;;8.75;8.75;;;;;;;;5078414;27;45480;-77
2021/10/25 14:05:20;;;;;;;;;10.75;8.00;;;;;;;;5077267;27;45482;-77
2021/10/25 14:07:46;;;;;;;;;6.25;5.75;;;;;;;;5077177;27;46953;-77
2021/10/25 14:12:38;;;;;;;;;4.75;4.75;;;;;;;;5087333;27;45447;-76
2021/10/25 14:17:42;;;;;;;;;6.50;5.00;;;;;;;;5076094;27;45875;-76
2021/10/25 14:20:07;;;;;;;;;6.25;4.75;;;;;;;;5076831;27;45790;-78
2021/10/25 14:22:32;;;;;;;;;5.50;4.75;;;;;;;;5076345;27;45561;-76
2021/10/25 14:24:58;;;;;;;;;7.50;6.50;;;;;;;;5074014;27;45418;-77
2021/10/25 14:27:23;;;;;;;;;4.50;4.50;;;;;;;;5079446;27;46041;-77
2021/10/25 14:29:48;;;;;;;;;5.25;5.00;;;;;;;;5076494;27;45439;-77
2021/10/25 14:32:13;;;;;;;;;4.00;4.00;;;;;;;;5077318;27;45411;-76
2021/10/25 14:34:39;;;;;;;;;5.50;5.25;;;;;;;;5077243;27;47860;-77
2021/10/25 14:37:07;;;;;;;;;4.75;4.50;;;;;;;;5056305;28;46248;-77
2021/10/25 14:39:40;;;;;;;;;3.00;3.00;;;;;;;;5092456;27;45375;-77
2021/10/25 14:44:40;;;;;;;;;4.50;4.50;;;;;;;;5076896;27;45354;-77
2021/10/25 14:55:05;;;;;;;;;6.00;6.00;;;;;;;;5072936;27;45342;-76
2021/10/25 14:57:31;;;;;;;;;7.25;7.25;;;;;;;;5078708;27;47576;-77
2021/10/25 14:59:56;;;;;;;;;8.50;6.75;;;;;;;;5074886;27;45449;-78
2021/10/25 15:02:22;;;;;;;;;10.50;9.25;;;;;;;;5076321;27;45411;-78
2021/10/25 15:04:49;;;;;;;;;8.00;7.00;;;;;;;;5076259;27;45875;-77
2021/10/25 15:07:20;;;;;;;;;6.50;6.50;;;;;;;;5073305;27;46284;-75
2021/10/25 15:09:47;;;;;;;;;10.50;10.50;;;;;;;;5075346;27;45617;-78
2021/10/25 15:12:12;;;;;;;;;11.50;9.50;;;;;;;;5076477;27;45522;-76
2021/10/25 15:14:41;;;;;;;;;13.75;12.75;;;;;;;;5075957;27;45678;-77
2021/10/25 15:17:07;;;;;;;;;15.25;14.00;;;;;;;;5076074;27;47019;-78
2021/10/25 15:19:35;;;;;;;;;11.50;11.50;;;;;;;;5075000;27;45422;-76
2021/10/25 15:22:01;;;;;;;;;12.00;10.50;;;;;;;;5072008;27;45307;-76
2021/10/25 15:24:26;;;;;;;;;11.75;10.00;;;;;;;;5077909;27;45228;-77
2021/10/25 15:26:54;;;;;;;;;14.50;13.00;;;;;;;;5075704;27;46196;-77
2021/10/25 15:29:20;;;;;;;;;11.50;10.50;;;;;;;;5073603;27;45356;-77
2021/10/25 15:31:45;;;;;;;;;10.75;10.50;;;;;;;;5075625;27;45500;-78
2021/10/25 15:34:11;;;;;;;;;10.50;10.50;;;;;;;;5070613;27;45333;-77
2021/10/25 15:36:36;;;;;;;;;10.75;10.00;;;;;;;;5076813;27;46149;-76
2021/10/25 15:39:02;;;;;;;;;12.50;9.75;;;;;;;;5075833;27;45490;-77
2021/10/25 15:41:27;;;;;;;;;11.25;11.00;;;;;;;;5057886;28;45356;-76
2021/10/25 15:43:52;;;;;;;;;12.50;10.25;;;;;;;;5075208;27;45666;-77
2021/10/25 15:46:20;;;;;;;;;11.75;10.50;;;;;;;;5072621;27;46107;-78
2021/10/25 15:48:47;;;;;;;;;10.75;10.75;;;;;;;;5074777;27;45414;-77
2021/10/25 15:51:15;;;;;;;;;12.75;12.00;;;;;;;;5076423;27;45372;-77
2021/10/25 15:53:40;;;;;;;;;7.00;7.00;;;;;;;;5075664;27;45433;-77
2021/10/25 15:56:06;;;;;;;;;5.25;3.00;;;;;;;;5075230;27;47083;-75
2021/10/25 15:58:31;;;;;;;;;8.00;7.00;;;;;;;;5074333;27;45400;-74
2021/10/25 16:00:57;;;;;;;;;8.00;7.50;;;;;;;;5072682;27;45456;-74
2021/10/25 16:03:22;;;;;;;;;10.00;9.00;;;;;;;;5077657;27;45430;-73
2021/10/25 16:05:48;;;;;;;;;9.25;8.75;;;;;;;;5075485;27;46173;-75
2021/10/25 16:08:13;;;;;;;;;7.75;4.75;;;;;;;;5073807;27;45386;-75
2021/10/25 16:10:39;;;;;;;;;7.50;6.25;;;;;;;;5073887;27;45461;-74
2021/10/25 16:13:04;;;;;;;;;10.00;8.75;;;;;;;;5070166;27;45573;-72
2021/10/25 16:15:29;;;;;;;;;9.50;8.25;;;;;;;;5058399;28;47232;-76
2021/10/25 16:17:54;;;;;;;;;6.75;4.25;;;;;;;;5075549;27;45368;-74